createdAt,value
2023-12-09T00:01:43.065Z,3.57
2023-12-09T00:04:12.894Z,3.64
2023-12-09T00:06:47.836Z,3.66
2023-12-09T00:09:15.335Z,3.62
2023-12-09T00:11:42.060Z,3.66
2023-12-09T00:14:08.883Z,3.64
2023-12-09T00:16:36.326Z,3.68
2023-12-09T00:19:03.539Z,3.68
2023-12-09T00:21:30.531Z,3.74
2023-12-09T00:23:58.900Z,3.68
2023-12-09T00:26:25.956Z,3.75
2023-12-09T00:28:54.070Z,3.79
2023-12-09T00:31:20.658Z,3.81
2023-12-09T00:33:47.485Z,3.85
2023-12-09T00:36:14.569Z,3.74
2023-12-09T00:38:41.288Z,3.73
2023-12-09T00:41:08.065Z,3.82
2023-12-09T00:43:34.721Z,3.83
2023-12-09T00:46:01.188Z,3.71
2023-12-09T00:48:27.900Z,3.76
2023-12-09T00:50:54.520Z,3.67
2023-12-09T00:53:21.052Z,3.68
2023-12-09T00:55:47.533Z,3.64
2023-12-09T00:58:14.034Z,3.62
2023-12-09T01:00:40.542Z,3.58
2023-12-09T01:03:07.345Z,3.67
2023-12-09T01:05:33.911Z,3.71
2023-12-09T01:08:00.590Z,3.66
2023-12-09T01:10:27.386Z,3.67
2023-12-09T01:12:54.247Z,3.71
2023-12-09T01:15:24.043Z,3.75
2023-12-09T01:17:50.802Z,3.75
2023-12-09T01:20:17.375Z,3.76
2023-12-09T01:22:44.037Z,3.76
2023-12-09T01:25:10.644Z,3.80
2023-12-09T01:27:37.249Z,3.84
2023-12-09T01:30:05.396Z,3.88
2023-12-09T01:32:32.280Z,3.89
2023-12-09T01:34:58.986Z,3.94
2023-12-09T01:37:26.112Z,3.92
2023-12-09T01:39:52.936Z,3.90
2023-12-09T01:42:20.428Z,3.97
2023-12-09T01:44:47.077Z,3.94
2023-12-09T01:47:14.311Z,3.87
2023-12-09T01:49:42.184Z,3.92
2023-12-09T01:52:08.854Z,3.88
2023-12-09T01:54:35.623Z,3.87
2023-12-09T01:57:02.552Z,3.82
2023-12-09T01:59:29.225Z,3.81
2023-12-09T02:01:55.852Z,3.86
2023-12-09T02:04:22.738Z,3.89
2023-12-09T02:06:49.556Z,3.90
2023-12-09T02:09:18.150Z,3.89
2023-12-09T02:12:00.630Z,3.99
2023-12-09T02:14:30.887Z,3.87
2023-12-09T02:17:11.953Z,3.91
2023-12-09T02:19:39.629Z,3.86
2023-12-09T02:22:08.024Z,3.80
2023-12-09T02:24:35.245Z,3.83
2023-12-09T02:27:19.510Z,3.72
2023-12-09T02:30:04.662Z,3.89
2023-12-09T02:32:32.616Z,3.90
2023-12-09T02:35:01.208Z,3.92
2023-12-09T02:37:30.436Z,3.88
2023-12-09T02:39:59.378Z,3.83
2023-12-09T02:42:27.847Z,3.84
2023-12-09T02:44:56.474Z,3.82
2023-12-09T02:47:23.064Z,3.74
2023-12-09T02:49:49.661Z,3.76
2023-12-09T02:52:16.438Z,3.75
2023-12-09T02:54:43.002Z,3.67
2023-12-09T02:57:09.863Z,3.74
2023-12-09T02:59:36.669Z,3.76
2023-12-09T03:02:03.278Z,3.72
2023-12-09T03:04:29.809Z,3.76
2023-12-09T03:06:56.406Z,3.68
2023-12-09T03:09:22.899Z,3.75
2023-12-09T03:11:49.796Z,3.73
2023-12-09T03:14:16.621Z,3.65
2023-12-09T03:16:43.245Z,3.62
2023-12-09T03:19:10.114Z,3.69
2023-12-09T03:21:37.539Z,3.64
2023-12-09T03:24:04.105Z,3.61
2023-12-09T03:26:30.667Z,3.58
2023-12-09T03:28:57.159Z,3.56
2023-12-09T03:31:23.822Z,3.54
2023-12-09T03:33:50.478Z,3.51
2023-12-09T03:36:17.352Z,3.49
2023-12-09T03:38:44.460Z,3.53
2023-12-09T03:41:11.088Z,3.54
2023-12-09T03:43:38.016Z,3.63
2023-12-09T03:46:05.706Z,3.67
2023-12-09T03:48:33.068Z,3.70
2023-12-09T03:50:59.986Z,3.74
2023-12-09T03:53:26.631Z,3.81
2023-12-09T03:55:53.861Z,3.86
2023-12-09T03:58:23.598Z,3.92
2023-12-09T04:00:51.727Z,3.94
2023-12-09T04:03:18.619Z,3.99
2023-12-09T04:05:45.565Z,3.94
2023-12-09T04:08:12.105Z,3.95
2023-12-09T04:10:38.642Z,3.99
2023-12-09T04:13:05.374Z,4.05
2023-12-09T04:15:32.122Z,4.09
2023-12-09T04:17:58.817Z,4.13
2023-12-09T04:20:25.689Z,4.10
2023-12-09T04:22:52.258Z,4.14
2023-12-09T04:25:18.732Z,4.11
2023-12-09T04:27:45.328Z,4.05
2023-12-09T04:30:13.379Z,4.12
2023-12-09T04:32:40.178Z,4.16
2023-12-09T04:35:07.543Z,4.05
2023-12-09T04:37:34.411Z,4.02
2023-12-09T04:40:01.842Z,4.04
2023-12-09T04:42:29.407Z,4.00
2023-12-09T04:44:56.253Z,3.94
2023-12-09T04:47:22.928Z,3.98
2023-12-09T04:49:50.276Z,3.97
2023-12-09T04:52:16.806Z,3.96
2023-12-09T04:54:43.250Z,3.89
2023-12-09T04:57:09.794Z,3.88
2023-12-09T04:59:36.241Z,3.91
2023-12-09T05:02:02.794Z,3.89
2023-12-09T05:04:29.317Z,3.84
2023-12-09T05:06:55.960Z,3.81
2023-12-09T05:09:26.143Z,3.90
2023-12-09T05:11:52.840Z,3.87
2023-12-09T05:14:19.460Z,3.92
2023-12-09T05:16:46.371Z,3.97
2023-12-09T05:19:13.244Z,3.83
2023-12-09T05:21:40.371Z,3.88
2023-12-09T05:24:07.034Z,3.86
2023-12-09T05:26:34.635Z,3.92
2023-12-09T05:29:01.259Z,3.93
2023-12-09T05:31:29.954Z,3.89
2023-12-09T05:33:56.731Z,3.92
2023-12-09T05:36:23.333Z,3.97
2023-12-09T05:38:49.929Z,3.98
2023-12-09T05:41:16.621Z,3.97
2023-12-09T05:43:46.197Z,3.95
2023-12-09T05:46:22.835Z,3.96
2023-12-09T05:48:50.001Z,3.99
2023-12-09T05:51:16.977Z,4.11
2023-12-09T05:53:43.656Z,4.10
2023-12-09T05:56:11.805Z,4.05
2023-12-09T05:58:40.508Z,4.02
2023-12-09T06:01:07.999Z,4.01
2023-12-09T06:03:34.674Z,4.06
2023-12-09T06:06:01.603Z,4.06
2023-12-09T06:08:28.127Z,4.06
2023-12-09T06:10:54.742Z,4.06
2023-12-09T06:13:21.239Z,4.10
2023-12-09T06:15:51.008Z,4.07
2023-12-09T06:18:17.995Z,4.05
2023-12-09T06:20:45.296Z,4.10
2023-12-09T06:23:12.494Z,4.09
2023-12-09T06:25:39.310Z,4.20
2023-12-09T06:28:05.971Z,4.23
2023-12-09T06:30:34.651Z,4.17
2023-12-09T06:33:02.030Z,4.20
2023-12-09T06:35:28.871Z,4.25
2023-12-09T06:37:56.206Z,4.28
2023-12-09T06:40:24.601Z,4.32
2023-12-09T06:42:51.088Z,4.17
2023-12-09T06:45:18.085Z,4.37
2023-12-09T06:47:44.911Z,4.39
2023-12-09T06:50:12.400Z,4.38
2023-12-09T06:52:40.347Z,4.42
2023-12-09T06:55:07.416Z,4.41
2023-12-09T06:57:34.702Z,4.42
2023-12-09T07:00:01.741Z,4.41
2023-12-09T07:02:40.959Z,4.41
2023-12-09T07:05:15.600Z,4.47
2023-12-09T07:07:42.248Z,4.49
2023-12-09T07:10:09.390Z,4.49
2023-12-09T07:12:35.954Z,4.55
2023-12-09T07:15:02.728Z,4.50
2023-12-09T07:17:29.819Z,4.47
2023-12-09T07:19:57.866Z,4.51
2023-12-09T07:22:24.723Z,4.49
2023-12-09T07:24:51.908Z,4.46
2023-12-09T07:27:18.994Z,4.42
2023-12-09T07:29:45.539Z,4.37
2023-12-09T07:32:12.695Z,4.35
2023-12-09T07:34:39.586Z,4.35
2023-12-09T07:37:06.220Z,4.28
2023-12-09T07:39:33.067Z,4.34
2023-12-09T07:42:00.306Z,4.26
2023-12-09T07:44:26.982Z,4.19
2023-12-09T07:46:53.548Z,4.27
2023-12-09T07:49:20.116Z,4.32
2023-12-09T07:51:47.013Z,4.35
2023-12-09T07:54:13.905Z,4.39
2023-12-09T07:56:40.919Z,4.40
2023-12-09T07:59:07.501Z,4.50
2023-12-09T08:01:34.295Z,4.50
2023-12-09T08:04:01.180Z,4.56
2023-12-09T08:06:27.749Z,4.52
2023-12-09T08:08:54.204Z,4.56
2023-12-09T08:11:20.869Z,4.54
2023-12-09T08:13:47.806Z,4.62
2023-12-09T08:16:14.641Z,5.06
2023-12-09T08:18:43.445Z,5.43
2023-12-09T08:21:11.182Z,6.02
2023-12-09T08:23:38.118Z,6.07
2023-12-09T08:26:05.205Z,6.28
2023-12-09T08:28:31.692Z,5.62
2023-12-09T08:30:58.407Z,5.67
2023-12-09T08:33:25.294Z,5.64
2023-12-09T08:35:52.078Z,5.55
2023-12-09T08:38:18.596Z,5.65
2023-12-09T08:40:45.692Z,5.61
2023-12-09T08:43:12.318Z,5.45
2023-12-09T08:45:38.803Z,5.92
2023-12-09T08:48:06.079Z,6.09
2023-12-09T08:50:32.688Z,6.53
2023-12-09T08:52:59.342Z,6.68
2023-12-09T08:55:25.868Z,6.26
2023-12-09T08:57:53.597Z,5.86
2023-12-09T09:00:22.346Z,5.70
2023-12-09T09:02:57.041Z,5.75
2023-12-09T09:05:24.288Z,5.57
2023-12-09T09:07:52.205Z,5.55
2023-12-09T09:10:20.204Z,5.39
2023-12-09T09:12:48.645Z,5.43
2023-12-09T09:15:17.776Z,5.52
2023-12-09T09:17:44.627Z,6.52
2023-12-09T09:20:12.151Z,5.65
2023-12-09T09:22:39.188Z,6.41
2023-12-09T09:25:06.082Z,6.83
2023-12-09T09:27:32.766Z,7.06
2023-12-09T09:29:59.552Z,7.56
2023-12-09T09:32:26.794Z,7.16
2023-12-09T09:34:53.773Z,6.50
2023-12-09T09:37:20.442Z,7.11
2023-12-09T09:39:47.222Z,7.57
2023-12-09T09:42:38.369Z,6.62
2023-12-09T09:45:27.601Z,6.28
2023-12-09T09:47:57.879Z,6.45
2023-12-09T09:50:27.973Z,5.96
2023-12-09T09:52:55.455Z,5.88
2023-12-09T09:55:23.677Z,5.92
2023-12-09T09:57:50.609Z,5.67
2023-12-09T10:00:20.739Z,5.66
2023-12-09T10:02:49.258Z,5.46
2023-12-09T10:05:17.802Z,5.52
2023-12-09T10:07:45.373Z,5.96
2023-12-09T10:10:14.353Z,5.73
2023-12-09T10:12:41.853Z,5.75
2023-12-09T10:15:09.888Z,5.52
2023-12-09T10:17:36.616Z,5.37
2023-12-09T10:20:07.195Z,5.47
2023-12-09T10:22:33.782Z,5.43
2023-12-09T10:25:00.363Z,5.49
2023-12-09T10:27:27.227Z,5.41
2023-12-09T10:29:55.549Z,5.98
2023-12-09T10:32:22.665Z,5.77
2023-12-09T10:34:50.634Z,5.54
2023-12-09T10:37:18.623Z,5.96
2023-12-09T10:39:49.403Z,5.82
2023-12-09T10:42:15.904Z,5.61
2023-12-09T10:44:43.023Z,6.76
2023-12-09T10:47:09.547Z,6.66
2023-12-09T10:49:36.594Z,6.95
2023-12-09T10:52:03.788Z,6.57
2023-12-09T10:54:30.983Z,6.47
2023-12-09T10:56:59.838Z,6.01
2023-12-09T10:59:28.794Z,6.11
2023-12-09T11:01:55.581Z,5.79
2023-12-09T11:04:22.388Z,5.94
2023-12-09T11:06:51.218Z,5.81
2023-12-09T11:09:20.223Z,5.82
2023-12-09T11:11:47.223Z,5.84
2023-12-09T11:14:14.701Z,6.36
2023-12-09T11:16:44.063Z,6.46
2023-12-09T11:19:17.992Z,7.14
2023-12-09T11:21:46.709Z,8.10
2023-12-09T11:24:14.820Z,7.41
2023-12-09T11:26:47.489Z,7.79
2023-12-09T11:29:18.242Z,8.18
2023-12-09T11:31:51.336Z,7.01
2023-12-09T11:34:21.558Z,7.49
2023-12-09T11:36:51.260Z,7.76
2023-12-09T11:39:21.382Z,7.61
2023-12-09T11:41:49.985Z,7.58
2023-12-09T11:44:17.163Z,8.04
2023-12-09T11:46:44.602Z,7.91
2023-12-09T11:49:11.346Z,7.49
2023-12-09T11:51:40.108Z,7.96
2023-12-09T11:54:08.764Z,7.75
2023-12-09T11:56:39.226Z,8.46
2023-12-09T11:59:06.790Z,8.87
2023-12-09T12:01:35.433Z,9.14
2023-12-09T12:04:02.232Z,8.78
2023-12-09T12:06:28.948Z,8.10
2023-12-09T12:08:55.777Z,8.31
2023-12-09T12:11:24.914Z,8.78
2023-12-09T12:13:53.869Z,8.78
2023-12-09T12:16:21.198Z,7.57
2023-12-09T12:18:49.649Z,7.20
2023-12-09T12:21:16.884Z,7.50
2023-12-09T12:23:43.674Z,6.98
2023-12-09T12:26:10.783Z,7.33
2023-12-09T12:28:37.888Z,6.87
2023-12-09T12:31:05.743Z,6.94
2023-12-09T12:33:33.952Z,6.59
2023-12-09T12:36:02.185Z,6.49
2023-12-09T12:38:29.226Z,6.25
2023-12-09T12:40:57.247Z,6.04
2023-12-09T12:43:24.307Z,6.06
2023-12-09T12:45:53.064Z,5.97
2023-12-09T12:48:21.308Z,5.93
2023-12-09T12:50:50.996Z,5.84
2023-12-09T12:53:21.725Z,5.65
2023-12-09T12:55:49.390Z,5.71
2023-12-09T12:58:16.885Z,5.71
2023-12-09T13:00:43.485Z,5.68
2023-12-09T13:03:10.129Z,5.86
2023-12-09T13:05:36.805Z,5.99
2023-12-09T13:08:05.402Z,5.99
2023-12-09T13:10:32.218Z,6.18
2023-12-09T13:12:58.772Z,5.93
2023-12-09T13:15:25.320Z,6.09
2023-12-09T13:17:52.161Z,5.99
2023-12-09T13:20:18.836Z,6.01
2023-12-09T13:22:47.294Z,6.00
2023-12-09T13:25:15.606Z,5.84
2023-12-09T13:27:43.993Z,5.77
2023-12-09T13:30:11.249Z,5.73
2023-12-09T13:32:38.907Z,5.63
2023-12-09T13:35:06.961Z,5.76
2023-12-09T13:37:34.504Z,5.57
2023-12-09T13:40:02.207Z,5.69
2023-12-09T13:42:29.480Z,5.56
2023-12-09T13:44:56.284Z,5.63
2023-12-09T13:47:22.830Z,5.69
2023-12-09T13:49:49.594Z,5.61
2023-12-09T13:52:17.356Z,5.41
2023-12-09T13:54:44.981Z,5.62
2023-12-09T13:57:11.799Z,5.48
2023-12-09T13:59:39.055Z,5.62
2023-12-09T14:02:07.623Z,5.50
2023-12-09T14:04:34.653Z,5.55
2023-12-09T14:07:01.926Z,5.61
2023-12-09T14:09:28.656Z,5.46
2023-12-09T14:11:55.307Z,5.39
2023-12-09T14:14:21.855Z,5.31
2023-12-09T14:16:48.438Z,5.28
2023-12-09T14:19:15.409Z,5.30
2023-12-09T14:21:42.931Z,5.36
2023-12-09T14:24:10.070Z,5.45
2023-12-09T14:26:37.186Z,5.45
2023-12-09T14:29:03.713Z,5.56
2023-12-09T14:31:30.226Z,5.69
2023-12-09T14:33:57.541Z,5.72
2023-12-09T14:36:24.341Z,5.81
2023-12-09T14:38:51.103Z,5.62
2023-12-09T14:41:17.930Z,5.69
2023-12-09T14:43:46.916Z,5.78
2023-12-09T14:46:14.180Z,5.79
2023-12-09T14:48:43.764Z,5.88
2023-12-09T14:51:10.593Z,5.82
2023-12-09T14:53:37.628Z,5.86
2023-12-09T14:56:04.679Z,5.81
2023-12-09T14:58:31.797Z,5.89
2023-12-09T15:00:58.423Z,5.85
2023-12-09T15:03:25.156Z,5.78
2023-12-09T15:05:52.432Z,5.79
2023-12-09T15:08:19.027Z,5.77
2023-12-09T15:10:45.935Z,5.81
2023-12-09T15:13:12.684Z,5.84
2023-12-09T15:15:39.504Z,5.83
2023-12-09T15:18:06.625Z,5.80
2023-12-09T15:20:33.269Z,5.79
2023-12-09T15:22:59.973Z,5.80
2023-12-09T15:25:26.734Z,5.76
2023-12-09T15:27:53.477Z,5.76
2023-12-09T15:30:20.574Z,5.72
2023-12-09T15:32:48.487Z,5.74
2023-12-09T15:35:15.048Z,5.67
2023-12-09T15:37:43.844Z,5.77
2023-12-09T15:40:12.566Z,5.73
2023-12-09T15:42:39.221Z,5.69
2023-12-09T15:45:06.591Z,5.73
2023-12-09T15:47:33.310Z,5.83
2023-12-09T15:50:00.677Z,5.80
2023-12-09T15:52:27.452Z,5.82
2023-12-09T15:54:54.457Z,5.87
2023-12-09T15:57:21.155Z,5.91
2023-12-09T15:59:47.882Z,5.95
2023-12-09T16:02:14.793Z,5.95
2023-12-09T16:04:41.933Z,5.97
2023-12-09T16:07:08.482Z,5.98
2023-12-09T16:09:40.738Z,5.96
2023-12-09T16:12:08.196Z,5.97
2023-12-09T16:14:34.777Z,6.02
2023-12-09T16:17:03.058Z,5.98
2023-12-09T16:19:29.724Z,5.89
2023-12-09T16:21:57.701Z,5.87
2023-12-09T16:24:28.507Z,5.77
2023-12-09T16:26:57.075Z,5.70
2023-12-09T16:29:24.634Z,5.71
2023-12-09T16:31:51.404Z,5.63
2023-12-09T16:34:18.080Z,5.62
2023-12-09T16:36:45.132Z,5.49
2023-12-09T16:39:14.330Z,5.53
2023-12-09T16:41:41.265Z,5.56
2023-12-09T16:44:10.619Z,5.49
2023-12-09T16:46:38.986Z,5.47
2023-12-09T16:49:05.584Z,5.46
2023-12-09T16:51:32.191Z,5.43
2023-12-09T16:53:58.917Z,5.43
2023-12-09T16:56:25.390Z,5.45
2023-12-09T16:58:51.971Z,5.30
2023-12-09T17:01:18.485Z,5.38
2023-12-09T17:03:45.214Z,5.36
2023-12-09T17:06:11.853Z,5.35
2023-12-09T17:08:38.692Z,5.24
2023-12-09T17:11:05.190Z,5.28
2023-12-09T17:13:31.724Z,5.19
2023-12-09T17:15:58.719Z,5.15
2023-12-09T17:18:27.027Z,5.18
2023-12-09T17:20:53.616Z,5.14
2023-12-09T17:23:20.107Z,5.22
2023-12-09T17:25:46.743Z,5.10
2023-12-09T17:28:14.061Z,5.14
2023-12-09T17:30:40.810Z,5.18
2023-12-09T17:33:07.611Z,5.16
2023-12-09T17:35:34.375Z,5.13
2023-12-09T17:38:01.034Z,5.11
2023-12-09T17:40:27.687Z,5.20
2023-12-09T17:42:54.385Z,5.21
2023-12-09T17:45:21.019Z,5.17
2023-12-09T17:47:48.315Z,5.18
2023-12-09T17:50:14.966Z,5.19
2023-12-09T17:52:42.336Z,5.16
2023-12-09T17:55:08.853Z,5.15
2023-12-09T17:57:35.857Z,5.16
2023-12-09T18:00:04.190Z,5.15
2023-12-09T18:02:30.993Z,5.12
2023-12-09T18:04:58.044Z,5.17
2023-12-09T18:07:24.639Z,5.14
2023-12-09T18:09:51.140Z,5.06
2023-12-09T18:12:17.831Z,5.01
2023-12-09T18:14:45.215Z,5.05
2023-12-09T18:17:11.759Z,5.04
2023-12-09T18:19:38.774Z,5.03
2023-12-09T18:22:06.474Z,5.03
2023-12-09T18:24:33.081Z,5.09
2023-12-09T18:26:59.775Z,5.05
2023-12-09T18:29:28.667Z,5.11
2023-12-09T18:31:55.416Z,5.07
2023-12-09T18:34:22.347Z,5.12
2023-12-09T18:36:49.410Z,5.23
2023-12-09T18:39:16.229Z,5.25
2023-12-09T18:41:42.731Z,5.33
2023-12-09T18:44:09.203Z,5.26
2023-12-09T18:46:35.832Z,5.33
2023-12-09T18:49:02.820Z,5.28
2023-12-09T18:51:29.440Z,5.47
2023-12-09T18:53:55.931Z,5.47
2023-12-09T18:56:25.052Z,5.45
2023-12-09T18:58:51.568Z,5.46
2023-12-09T19:01:18.424Z,5.45
2023-12-09T19:03:45.145Z,5.51
2023-12-09T19:06:12.301Z,5.48
2023-12-09T19:08:39.258Z,5.55
2023-12-09T19:11:06.180Z,5.48
2023-12-09T19:13:33.359Z,5.54
2023-12-09T19:16:00.101Z,5.55
2023-12-09T19:18:26.832Z,5.43
2023-12-09T19:20:53.427Z,5.49
2023-12-09T19:23:19.990Z,5.42
2023-12-09T19:25:46.684Z,5.33
2023-12-09T19:28:13.486Z,5.26
2023-12-09T19:30:40.110Z,5.21
2023-12-09T19:33:07.038Z,5.23
2023-12-09T19:35:33.924Z,5.28
2023-12-09T19:38:00.401Z,5.20
2023-12-09T19:40:26.861Z,5.20
2023-12-09T19:42:55.861Z,5.18
2023-12-09T19:45:22.600Z,5.29
2023-12-09T19:47:49.320Z,5.31
2023-12-09T19:50:16.336Z,5.29
2023-12-09T19:52:43.037Z,5.16
2023-12-09T19:55:10.045Z,5.20
2023-12-09T19:57:36.685Z,5.15
2023-12-09T20:00:04.564Z,5.10
2023-12-09T20:02:31.374Z,5.09
2023-12-09T20:04:58.037Z,5.02
2023-12-09T20:07:24.754Z,5.10
2023-12-09T20:09:51.372Z,5.09
2023-12-09T20:12:18.195Z,5.02
2023-12-09T20:14:44.713Z,5.05
2023-12-09T20:17:11.169Z,4.94
2023-12-09T20:19:38.380Z,4.99
2023-12-09T20:22:05.536Z,4.84
2023-12-09T20:24:32.177Z,4.92
2023-12-09T20:26:58.803Z,4.84
2023-12-09T20:29:25.350Z,4.90
2023-12-09T20:31:51.878Z,4.84
2023-12-09T20:34:18.532Z,4.78
2023-12-09T20:36:45.150Z,4.81
2023-12-09T20:39:12.216Z,4.76
2023-12-09T20:41:38.772Z,4.74
2023-12-09T20:44:05.570Z,4.73
2023-12-09T20:46:32.102Z,4.78
2023-12-09T20:48:58.807Z,4.69
2023-12-09T20:51:25.855Z,4.73
2023-12-09T20:53:53.142Z,4.69
2023-12-09T20:56:19.792Z,4.64
2023-12-09T20:58:47.520Z,4.64
2023-12-09T21:01:14.945Z,4.62
2023-12-09T21:03:42.008Z,4.66
2023-12-09T21:06:11.479Z,4.60
2023-12-09T21:08:42.474Z,4.66
2023-12-09T21:11:09.094Z,4.57
2023-12-09T21:13:35.571Z,4.60
2023-12-09T21:16:02.060Z,4.52
2023-12-09T21:18:29.036Z,4.60
2023-12-09T21:20:55.749Z,4.51
2023-12-09T21:23:23.104Z,4.51
2023-12-09T21:25:50.259Z,4.54
2023-12-09T21:28:16.768Z,4.53
2023-12-09T21:30:43.362Z,4.57
2023-12-09T21:33:09.959Z,4.57
2023-12-09T21:35:36.602Z,4.68
2023-12-09T21:38:03.977Z,4.82
2023-12-09T21:40:30.852Z,4.80
2023-12-09T21:42:57.760Z,4.90
2023-12-09T21:45:24.339Z,4.89
2023-12-09T21:47:55.432Z,4.86
2023-12-09T21:50:22.629Z,4.85
2023-12-09T21:52:49.458Z,4.82
2023-12-09T21:55:16.982Z,4.82
2023-12-09T21:57:44.107Z,4.87
2023-12-09T22:00:11.252Z,4.88
2023-12-09T22:02:37.889Z,4.92
2023-12-09T22:05:05.040Z,5.09
2023-12-09T22:07:31.521Z,5.05
2023-12-09T22:09:58.088Z,5.10
2023-12-09T22:12:24.721Z,5.15
2023-12-09T22:14:51.244Z,5.10
2023-12-09T22:17:17.927Z,5.15
2023-12-09T22:19:44.472Z,5.16
2023-12-09T22:22:11.293Z,5.28
2023-12-09T22:24:37.955Z,5.43
2023-12-09T22:27:05.340Z,5.38
2023-12-09T22:29:34.570Z,5.37
2023-12-09T22:32:01.744Z,5.40
2023-12-09T22:34:29.118Z,5.44
2023-12-09T22:36:55.788Z,5.44
2023-12-09T22:39:22.745Z,5.48
2023-12-09T22:41:49.310Z,5.51
2023-12-09T22:44:15.921Z,5.52
2023-12-09T22:46:42.410Z,5.59
2023-12-09T22:49:09.284Z,5.63
2023-12-09T22:51:37.279Z,5.58
2023-12-09T22:54:04.073Z,5.73
2023-12-09T22:56:33.328Z,5.68
2023-12-09T22:59:00.582Z,5.75
2023-12-09T23:01:32.763Z,5.72
2023-12-09T23:04:00.827Z,5.73
2023-12-09T23:06:28.055Z,5.72
2023-12-09T23:08:55.550Z,5.74
2023-12-09T23:11:22.024Z,5.75
2023-12-09T23:13:48.869Z,5.79
2023-12-09T23:16:15.403Z,5.80
2023-12-09T23:18:42.409Z,5.82
2023-12-09T23:21:09.549Z,5.87
2023-12-09T23:23:36.630Z,5.91
2023-12-09T23:26:03.288Z,5.94
2023-12-09T23:28:29.812Z,5.92
2023-12-09T23:30:56.351Z,5.99
2023-12-09T23:33:23.204Z,5.97
2023-12-09T23:35:50.309Z,6.10
2023-12-09T23:38:16.917Z,6.20
2023-12-09T23:40:43.989Z,6.11
2023-12-09T23:43:10.771Z,6.16
2023-12-09T23:45:38.260Z,6.22
2023-12-09T23:48:05.809Z,6.30
2023-12-09T23:50:32.855Z,6.31
2023-12-09T23:52:59.532Z,6.32
2023-12-09T23:55:26.578Z,6.37
2023-12-09T23:57:53.389Z,6.39
